createdAt,value
2023-03-29T03:33:34.816Z,83.30
2023-03-29T03:44:40.073Z,81.30
2023-03-29T03:55:51.325Z,85.30
2023-03-29T04:06:32.486Z,87.70
2023-03-29T04:17:37.393Z,89.00
2023-03-29T04:28:27.107Z,90.50
2023-03-29T04:39:20.391Z,95.50
2023-03-29T04:50:02.547Z,99.90
2023-03-29T05:00:46.483Z,99.90
2023-03-29T05:11:38.255Z,99.20
2023-03-29T05:22:15.193Z,99.90
2023-03-29T05:32:50.987Z,95.70
2023-03-29T05:43:32.724Z,92.70
2023-03-29T05:54:09.251Z,80.20
2023-03-29T06:04:45.315Z,75.00
2023-03-29T06:15:45.089Z,53.00
2023-03-29T06:26:21.633Z,45.60
2023-03-29T06:36:58.316Z,43.60
2023-03-29T06:47:35.596Z,42.80
2023-03-29T06:58:12.269Z,42.40
2023-03-29T07:08:50.638Z,40.90
2023-03-29T07:19:35.535Z,39.20
2023-03-29T07:30:29.085Z,37.10
2023-03-29T07:41:18.676Z,33.40
2023-03-29T07:51:56.708Z,32.50
2023-03-29T08:02:34.330Z,30.40
2023-03-29T08:13:11.685Z,26.10
2023-03-29T08:23:55.994Z,26.50
2023-03-29T08:34:47.513Z,24.20
2023-03-29T08:45:46.924Z,22.10
2023-03-29T08:56:27.370Z,20.20
2023-03-29T09:07:15.288Z,21.50
2023-03-29T09:18:11.558Z,23.70
2023-03-29T09:29:02.648Z,23.50
2023-03-29T09:39:40.889Z,24.50
2023-03-29T09:50:31.562Z,24.10
2023-03-29T10:01:14.438Z,24.10
2023-03-29T10:11:53.815Z,23.00
2023-03-29T10:22:36.244Z,20.00
2023-03-29T10:33:21.025Z,18.90
2023-03-29T10:43:57.028Z,18.80
2023-03-29T10:54:32.680Z,19.00
2023-03-29T11:05:14.627Z,17.30
2023-03-29T11:16:04.752Z,19.40
2023-03-29T11:27:16.999Z,18.20
2023-03-29T11:38:13.662Z,17.70
2023-03-29T11:49:15.174Z,17.80
2023-03-29T12:00:12.678Z,18.60
2023-03-29T12:10:57.940Z,17.10
2023-03-29T12:21:36.186Z,17.20
2023-03-29T12:32:21.800Z,15.80
2023-03-29T12:43:27.338Z,14.80
2023-03-29T12:54:52.196Z,15.60
2023-03-29T13:05:34.958Z,15.30
2023-03-29T13:16:19.193Z,12.90
2023-03-29T13:27:02.708Z,14.10
2023-03-29T13:38:05.129Z,14.90
2023-03-29T13:48:41.243Z,14.20
2023-03-29T13:59:20.526Z,15.00
2023-03-29T14:09:58.131Z,14.60
2023-03-29T14:20:33.849Z,13.80
2023-03-29T14:31:20.849Z,14.70
2023-03-29T14:41:57.164Z,14.50
2023-03-29T14:52:34.290Z,15.30
2023-03-29T15:03:15.881Z,16.70
2023-03-29T15:14:04.728Z,17.10
2023-03-29T15:24:48.406Z,17.60
2023-03-29T15:35:25.587Z,17.50
2023-03-29T15:46:01.172Z,17.40
2023-03-29T15:56:43.777Z,18.30
2023-03-29T16:07:20.778Z,18.80
2023-03-29T16:17:56.516Z,17.70
2023-03-29T16:28:32.442Z,19.10
2023-03-29T16:39:08.441Z,19.40
2023-03-29T16:49:45.851Z,20.70
2023-03-29T17:00:21.888Z,22.40
2023-03-29T17:10:57.693Z,25.20
2023-03-29T17:21:33.716Z,27.90
2023-03-29T17:32:09.163Z,30.00
2023-03-29T17:42:47.711Z,32.20
2023-03-29T17:53:24.017Z,32.70
2023-03-29T18:03:59.387Z,33.00
2023-03-29T18:14:35.793Z,29.30
2023-03-29T18:25:11.187Z,23.20
2023-03-29T18:35:51.105Z,20.60
2023-03-29T18:46:30.384Z,20.00
2023-03-29T18:57:06.737Z,20.50
2023-03-29T19:07:42.709Z,19.50
2023-03-29T19:18:18.992Z,18.70
2023-03-29T19:28:54.715Z,17.70
2023-03-29T19:39:30.166Z,17.20
2023-03-29T19:50:06.919Z,17.10
2023-03-29T20:00:42.432Z,16.10
2023-03-29T20:11:23.550Z,15.40
2023-03-29T20:22:00.574Z,14.80
2023-03-29T20:32:37.080Z,14.30
2023-03-29T20:43:18.747Z,14.50
2023-03-29T20:54:02.655Z,15.10
2023-03-29T21:04:39.300Z,15.40
2023-03-29T21:15:14.643Z,14.30
2023-03-29T21:25:50.649Z,14.80
